createdAt,value
2023-01-27T00:01:37.686Z,7.92
2023-01-27T00:04:07.161Z,7.92
2023-01-27T00:06:34.065Z,8.01
2023-01-27T00:09:05.714Z,7.93
2023-01-27T00:11:56.230Z,7.95
2023-01-27T00:14:23.827Z,8.01
2023-01-27T00:16:53.532Z,8.05
2023-01-27T00:19:20.509Z,8.04
2023-01-27T00:22:08.740Z,7.97
2023-01-27T00:24:38.485Z,8.02
2023-01-27T00:27:09.453Z,8.03
2023-01-27T00:29:37.260Z,7.92
2023-01-27T00:32:24.221Z,7.95
2023-01-27T00:34:53.604Z,7.70
2023-01-27T00:37:20.906Z,7.65
2023-01-27T00:39:47.749Z,7.73
2023-01-27T00:42:14.672Z,7.65
2023-01-27T00:45:01.574Z,7.31
2023-01-27T00:47:28.583Z,7.66
2023-01-27T00:49:58.153Z,7.60
2023-01-27T00:52:25.362Z,7.67
2023-01-27T00:54:54.696Z,7.78
2023-01-27T00:57:23.824Z,7.64
2023-01-27T00:59:53.465Z,7.41
2023-01-27T01:02:22.863Z,7.55
2023-01-27T01:04:49.878Z,7.77
2023-01-27T01:07:19.199Z,7.63
2023-01-27T01:09:46.209Z,7.51
2023-01-27T01:12:13.342Z,7.62
2023-01-27T01:14:42.951Z,7.34
2023-01-27T01:17:09.763Z,7.38
2023-01-27T01:19:36.738Z,7.49
2023-01-27T01:22:05.840Z,7.58
2023-01-27T01:24:32.848Z,7.51
2023-01-27T01:27:00.446Z,7.38
2023-01-27T01:29:29.574Z,7.48
2023-01-27T01:31:58.892Z,7.30
2023-01-27T01:34:25.769Z,7.52
2023-01-27T01:36:52.730Z,7.25
2023-01-27T01:39:19.772Z,7.21
2023-01-27T01:41:47.103Z,7.01
2023-01-27T01:44:31.673Z,7.22
2023-01-27T01:47:01.067Z,7.19
2023-01-27T01:49:36.613Z,7.18
2023-01-27T01:52:24.577Z,7.28
2023-01-27T01:54:55.821Z,7.30
2023-01-27T01:57:34.339Z,7.24
2023-01-27T02:00:10.482Z,7.50
2023-01-27T02:02:39.411Z,7.35
2023-01-27T02:05:16.724Z,7.28
2023-01-27T02:08:30.149Z,7.24
2023-01-27T02:10:57.740Z,7.22
2023-01-27T02:13:24.767Z,7.16
2023-01-27T02:15:54.981Z,7.35
2023-01-27T02:18:23.087Z,7.49
2023-01-27T02:20:53.825Z,7.48
2023-01-27T02:23:29.372Z,7.51
2023-01-27T02:26:11.203Z,7.35
2023-01-27T02:28:41.207Z,7.08
2023-01-27T02:31:10.584Z,7.20
2023-01-27T02:33:37.662Z,7.23
2023-01-27T02:36:11.993Z,7.24
2023-01-27T02:38:55.527Z,7.26
2023-01-27T02:41:35.362Z,7.37
2023-01-27T02:44:06.777Z,7.19
2023-01-27T02:46:34.042Z,7.18
2023-01-27T02:49:01.863Z,7.41
2023-01-27T02:51:31.364Z,7.43
2023-01-27T02:54:00.721Z,7.47
2023-01-27T02:56:28.523Z,7.47
2023-01-27T02:59:01.157Z,7.27
2023-01-27T03:01:28.184Z,7.33
2023-01-27T03:03:55.170Z,7.15
2023-01-27T03:06:24.736Z,7.27
2023-01-27T03:08:53.883Z,7.30
2023-01-27T03:11:39.173Z,7.26
2023-01-27T03:14:08.445Z,7.35
2023-01-27T03:16:54.246Z,7.37
2023-01-27T03:19:23.671Z,7.39
2023-01-27T03:21:53.688Z,7.50
2023-01-27T03:24:21.109Z,7.16
2023-01-27T03:26:48.651Z,7.19
2023-01-27T03:29:34.502Z,7.10
2023-01-27T03:32:01.372Z,7.17
2023-01-27T03:34:30.344Z,7.17
2023-01-27T03:37:18.118Z,7.38
2023-01-27T03:40:03.684Z,7.22
2023-01-27T03:42:51.243Z,7.27
2023-01-27T03:45:36.785Z,7.51
2023-01-27T03:48:04.146Z,7.30
2023-01-27T03:50:43.827Z,7.45
2023-01-27T03:53:13.508Z,7.82
2023-01-27T03:55:40.473Z,8.00
2023-01-27T03:58:32.234Z,7.89
2023-01-27T04:01:08.595Z,7.94
2023-01-27T04:03:55.020Z,7.57
2023-01-27T04:06:44.967Z,7.53
2023-01-27T04:09:13.698Z,7.47
2023-01-27T04:11:55.963Z,7.24
2023-01-27T04:14:30.574Z,7.06
2023-01-27T04:17:12.539Z,7.22
2023-01-27T04:19:39.901Z,7.17
2023-01-27T04:22:12.095Z,7.10
2023-01-27T04:24:39.534Z,6.90
2023-01-27T04:27:13.324Z,7.07
2023-01-27T04:29:42.227Z,6.99
2023-01-27T04:32:12.396Z,7.14
2023-01-27T04:34:40.517Z,7.22
2023-01-27T04:37:10.742Z,6.87
2023-01-27T04:39:41.503Z,6.72
2023-01-27T04:42:10.708Z,6.70
2023-01-27T04:44:37.752Z,6.94
2023-01-27T04:47:04.764Z,6.96
2023-01-27T04:49:34.214Z,6.68
2023-01-27T04:52:01.168Z,6.73
2023-01-27T04:54:30.733Z,6.88
2023-01-27T04:57:00.735Z,6.79
2023-01-27T04:59:32.465Z,6.95
2023-01-27T05:02:01.871Z,6.91
2023-01-27T05:04:28.876Z,6.95
2023-01-27T05:06:55.923Z,6.86
2023-01-27T05:09:25.572Z,6.92
2023-01-27T05:11:52.546Z,6.93
2023-01-27T05:14:23.695Z,6.93
2023-01-27T05:16:55.270Z,6.76
2023-01-27T05:19:22.232Z,6.90
2023-01-27T05:21:49.264Z,6.87
2023-01-27T05:24:16.313Z,7.07
2023-01-27T05:26:43.294Z,7.11
2023-01-27T05:29:12.480Z,7.11
2023-01-27T05:31:39.437Z,7.19
2023-01-27T05:34:06.684Z,7.00
2023-01-27T05:36:33.714Z,6.99
2023-01-27T05:39:00.904Z,6.98
2023-01-27T05:41:31.902Z,6.58
2023-01-27T05:43:59.308Z,6.94
2023-01-27T05:46:32.110Z,6.87
2023-01-27T05:49:06.203Z,7.04
2023-01-27T05:51:39.985Z,7.21
2023-01-27T05:54:08.665Z,7.09
2023-01-27T05:56:36.220Z,7.04
2023-01-27T05:59:03.125Z,7.16
2023-01-27T06:01:35.015Z,7.22
2023-01-27T06:04:02.380Z,7.21
2023-01-27T06:06:32.016Z,7.08
2023-01-27T06:09:02.346Z,7.04
2023-01-27T06:11:33.224Z,7.26
2023-01-27T06:14:02.455Z,7.30
2023-01-27T06:16:29.398Z,7.20
2023-01-27T06:19:01.167Z,6.99
2023-01-27T06:21:32.578Z,7.17
2023-01-27T06:24:02.092Z,7.20
2023-01-27T06:26:33.404Z,7.12
2023-01-27T06:29:00.390Z,7.34
2023-01-27T06:31:28.428Z,7.15
2023-01-27T06:33:57.553Z,6.97
2023-01-27T06:36:24.552Z,7.08
2023-01-27T06:38:56.535Z,7.05
2023-01-27T06:41:26.416Z,6.94
2023-01-27T06:43:53.686Z,6.86
2023-01-27T06:46:23.004Z,6.88
2023-01-27T06:48:50.032Z,7.00
2023-01-27T06:51:17.056Z,7.12
2023-01-27T06:53:44.158Z,7.00
2023-01-27T06:56:11.383Z,6.95
2023-01-27T06:58:40.738Z,6.86
2023-01-27T07:01:10.208Z,6.85
2023-01-27T07:03:39.416Z,6.93
2023-01-27T07:06:06.776Z,6.89
2023-01-27T07:08:36.736Z,6.89
2023-01-27T07:11:07.427Z,7.04
2023-01-27T07:13:36.768Z,7.24
2023-01-27T07:16:04.194Z,6.95
2023-01-27T07:18:33.869Z,6.85
2023-01-27T07:21:00.813Z,6.93
2023-01-27T07:23:27.886Z,6.74
2023-01-27T07:25:54.828Z,6.77
2023-01-27T07:28:21.842Z,6.80
2023-01-27T07:30:51.475Z,7.24
2023-01-27T07:33:18.539Z,7.28
2023-01-27T07:35:49.890Z,7.12
2023-01-27T07:38:17.060Z,6.98
2023-01-27T07:40:48.740Z,6.87
2023-01-27T07:43:15.881Z,6.90
2023-01-27T07:45:48.998Z,7.03
2023-01-27T07:48:16.570Z,6.83
2023-01-27T07:50:43.707Z,7.00
2023-01-27T07:53:12.950Z,6.86
2023-01-27T07:55:40.135Z,6.98
2023-01-27T07:58:09.975Z,7.14
2023-01-27T08:00:37.224Z,6.90
2023-01-27T08:03:06.203Z,6.77
2023-01-27T08:05:35.001Z,6.91
2023-01-27T08:08:06.597Z,6.99
2023-01-27T08:10:33.566Z,6.71
2023-01-27T08:13:02.941Z,6.68
2023-01-27T08:15:30.158Z,6.73
2023-01-27T08:17:59.231Z,6.73
2023-01-27T08:20:28.193Z,6.79
2023-01-27T08:22:57.881Z,7.02
2023-01-27T08:25:27.970Z,6.87
2023-01-27T08:27:57.349Z,7.03
2023-01-27T08:30:25.296Z,7.13
2023-01-27T08:32:54.841Z,7.16
2023-01-27T08:35:21.953Z,7.04
2023-01-27T08:37:49.142Z,7.06
2023-01-27T08:40:17.693Z,7.18
2023-01-27T08:42:46.921Z,7.30
2023-01-27T08:45:16.088Z,7.19
2023-01-27T08:47:43.199Z,7.25
2023-01-27T08:50:13.758Z,7.22
2023-01-27T08:52:43.321Z,7.07
2023-01-27T08:55:10.450Z,7.04
2023-01-27T08:57:37.878Z,7.16
2023-01-27T09:00:09.780Z,7.18
2023-01-27T09:02:38.969Z,7.07
2023-01-27T09:05:07.049Z,7.10
2023-01-27T09:07:34.354Z,6.71
2023-01-27T09:10:14.018Z,6.60
2023-01-27T09:12:47.318Z,6.71
2023-01-27T09:15:15.741Z,6.67
2023-01-27T09:17:45.283Z,6.82
2023-01-27T09:20:13.196Z,6.91
2023-01-27T09:22:41.349Z,6.73
2023-01-27T09:25:17.780Z,6.65
2023-01-27T09:27:47.449Z,6.68
2023-01-27T09:30:16.677Z,6.69
2023-01-27T09:32:45.268Z,6.58
2023-01-27T09:35:15.288Z,6.75
2023-01-27T09:38:04.557Z,6.87
2023-01-27T09:40:34.038Z,6.94
2023-01-27T09:43:25.067Z,6.75
2023-01-27T09:46:24.099Z,6.84
2023-01-27T09:49:21.387Z,6.97
2023-01-27T09:52:20.477Z,6.82
2023-01-27T09:55:38.388Z,6.80
2023-01-27T09:58:17.044Z,6.89
2023-01-27T10:01:18.366Z,6.90
2023-01-27T10:04:06.771Z,6.91
2023-01-27T10:07:43.300Z,6.93
2023-01-27T10:10:31.493Z,7.21
2023-01-27T10:13:16.391Z,6.99
2023-01-27T10:16:20.462Z,7.11
2023-01-27T10:19:15.891Z,7.04
2023-01-27T10:22:02.587Z,6.96
2023-01-27T10:24:38.704Z,6.98
2023-01-27T10:27:24.558Z,6.83
2023-01-27T10:30:37.385Z,6.59
2023-01-27T10:33:52.546Z,6.80
2023-01-27T10:36:51.214Z,6.93
2023-01-27T10:39:44.079Z,7.14
2023-01-27T10:43:04.308Z,7.15
2023-01-27T10:45:56.363Z,6.98
2023-01-27T10:48:55.057Z,7.19
2023-01-27T10:51:39.219Z,6.62
2023-01-27T10:54:35.169Z,6.79
2023-01-27T10:57:38.598Z,6.83
2023-01-27T11:03:33.520Z,6.98
2023-01-27T11:06:08.524Z,6.96
2023-01-27T11:08:41.906Z,6.98
2023-01-27T11:11:30.715Z,6.88
2023-01-27T11:14:27.545Z,7.32
2023-01-27T11:17:31.309Z,7.24
2023-01-27T11:20:25.576Z,7.28
2023-01-27T11:23:24.257Z,7.18
2023-01-27T11:26:34.263Z,7.01
2023-01-27T11:29:34.688Z,6.94
2023-01-27T11:32:23.614Z,6.83
2023-01-27T11:35:09.864Z,6.78
2023-01-27T11:37:48.135Z,6.62
2023-01-27T11:40:22.187Z,6.96
2023-01-27T11:42:51.646Z,7.33
2023-01-27T11:45:21.165Z,7.72
2023-01-27T11:47:52.896Z,7.71
2023-01-27T11:50:24.850Z,7.65
2023-01-27T11:53:04.451Z,7.91
2023-01-27T11:55:43.227Z,7.83
2023-01-27T11:58:25.572Z,7.90
2023-01-27T12:01:06.130Z,7.60
2023-01-27T12:03:41.802Z,7.87
2023-01-27T12:07:17.704Z,8.11
2023-01-27T12:09:44.696Z,8.08
2023-01-27T12:12:14.967Z,7.89
2023-01-27T12:15:03.225Z,7.90
2023-01-27T12:17:43.819Z,7.63
2023-01-27T12:20:35.111Z,7.69
2023-01-27T12:23:18.713Z,7.69
2023-01-27T12:25:53.358Z,7.56
2023-01-27T12:28:37.972Z,7.09
2023-01-27T12:31:13.847Z,7.13
2023-01-27T12:33:59.952Z,6.75
2023-01-27T12:36:30.172Z,7.11
2023-01-27T12:39:03.420Z,6.85
2023-01-27T12:41:39.117Z,6.79
2023-01-27T12:44:26.377Z,7.17
2023-01-27T12:47:04.055Z,6.87
2023-01-27T12:49:40.630Z,6.54
2023-01-27T12:52:18.421Z,6.53
2023-01-27T12:54:46.232Z,6.67
2023-01-27T12:57:20.953Z,6.57
2023-01-27T12:59:55.390Z,6.68
2023-01-27T13:02:33.980Z,6.74
2023-01-27T13:05:05.557Z,6.96
2023-01-27T13:07:44.566Z,7.02
2023-01-27T13:10:25.803Z,7.09
2023-01-27T13:12:57.517Z,7.42
2023-01-27T13:15:28.635Z,7.32
2023-01-27T13:18:00.465Z,7.40
2023-01-27T13:20:45.715Z,7.17
2023-01-27T13:23:29.383Z,7.04
2023-01-27T13:26:11.349Z,7.00
2023-01-27T13:28:58.931Z,7.13
2023-01-27T13:31:49.776Z,7.17
2023-01-27T13:34:24.850Z,7.01
2023-01-27T13:37:28.258Z,7.18
2023-01-27T13:39:57.948Z,7.18
2023-01-27T13:42:53.415Z,7.04
2023-01-27T13:45:32.716Z,7.12
2023-01-27T13:48:13.224Z,6.92
2023-01-27T13:50:53.741Z,7.21
2023-01-27T13:53:21.090Z,7.36
2023-01-27T13:56:06.118Z,7.56
2023-01-27T13:59:11.000Z,7.72
2023-01-27T14:02:06.521Z,7.62
2023-01-27T14:04:42.747Z,7.52
2023-01-27T14:07:48.739Z,7.40
2023-01-27T14:10:59.723Z,7.19
2023-01-27T14:14:03.752Z,7.43
2023-01-27T14:16:42.869Z,7.60
2023-01-27T14:19:40.231Z,7.31
2023-01-27T14:22:28.670Z,7.32
2023-01-27T14:25:15.094Z,7.43
2023-01-27T14:28:36.139Z,7.25
2023-01-27T14:32:01.640Z,7.38
2023-01-27T14:35:22.563Z,7.34
2023-01-27T14:38:27.677Z,7.50
2023-01-27T14:41:21.844Z,7.30
2023-01-27T14:44:33.903Z,7.30
2023-01-27T14:47:24.192Z,7.36
2023-01-27T14:51:01.448Z,7.09
2023-01-27T14:54:01.604Z,7.31
2023-01-27T14:56:46.959Z,7.68
2023-01-27T15:00:11.374Z,7.49
2023-01-27T15:02:56.679Z,7.59
2023-01-27T15:05:44.684Z,7.09
2023-01-27T15:08:37.922Z,6.59
2023-01-27T15:11:29.756Z,6.37
2023-01-27T15:14:12.477Z,6.38
2023-01-27T15:17:38.088Z,6.28
2023-01-27T15:20:48.448Z,6.11
2023-01-27T15:23:48.030Z,6.23
2023-01-27T15:26:21.669Z,5.99
2023-01-27T15:28:52.255Z,6.30
2023-01-27T15:31:19.455Z,6.14
2023-01-27T15:34:16.788Z,6.02
2023-01-27T15:37:12.209Z,6.15
2023-01-27T15:40:06.285Z,6.14
2023-01-27T15:42:53.350Z,6.40
2023-01-27T15:45:32.004Z,6.42
2023-01-27T15:48:22.407Z,6.47
2023-01-27T15:50:59.382Z,6.54
2023-01-27T15:53:44.813Z,6.60
2023-01-27T15:56:12.302Z,6.67
2023-01-27T15:58:43.176Z,6.46
2023-01-27T16:01:25.427Z,6.59
2023-01-27T16:04:13.062Z,6.66
2023-01-27T16:07:02.117Z,6.68
2023-01-27T16:09:41.900Z,6.27
2023-01-27T16:12:24.487Z,6.14
2023-01-27T16:15:15.106Z,6.26
2023-01-27T16:18:08.554Z,6.47
2023-01-27T16:20:55.703Z,6.34
2023-01-27T16:23:50.282Z,6.47
2023-01-27T16:26:36.651Z,6.24
2023-01-27T16:29:12.405Z,6.08
2023-01-27T16:31:43.718Z,6.40
2023-01-27T16:34:25.997Z,6.47
2023-01-27T16:37:19.853Z,6.39
2023-01-27T16:39:59.091Z,6.33
2023-01-27T16:42:56.166Z,6.24
2023-01-27T16:45:28.074Z,6.01
2023-01-27T16:48:06.285Z,5.80
2023-01-27T16:50:44.759Z,5.84
2023-01-27T16:53:19.930Z,5.89
2023-01-27T16:56:02.718Z,6.02
2023-01-27T16:58:43.862Z,6.08
2023-01-27T17:01:43.559Z,6.33
2023-01-27T17:04:21.969Z,6.35
2023-01-27T17:06:51.711Z,6.18
2023-01-27T17:09:30.087Z,6.42
2023-01-27T17:11:59.469Z,6.38
2023-01-27T17:14:38.230Z,6.44
2023-01-27T17:17:17.965Z,6.11
2023-01-27T17:19:50.015Z,6.26
2023-01-27T17:22:28.704Z,6.17
2023-01-27T17:25:02.507Z,6.37
2023-01-27T17:27:42.267Z,6.14
2023-01-27T17:30:19.155Z,6.11
2023-01-27T17:32:55.989Z,6.32
2023-01-27T17:35:32.905Z,6.52
2023-01-27T17:38:23.553Z,6.36
2023-01-27T17:40:57.597Z,6.40
2023-01-27T17:43:34.534Z,6.48
2023-01-27T17:46:21.241Z,6.41
2023-01-27T17:49:01.393Z,6.41
2023-01-27T17:51:53.206Z,6.41
2023-01-27T17:54:30.111Z,6.30
2023-01-27T17:57:20.184Z,6.12
2023-01-27T18:00:00.759Z,6.01
2023-01-27T18:02:35.639Z,6.09
2023-01-27T18:05:17.183Z,6.21
2023-01-27T18:07:44.238Z,6.10
2023-01-27T18:10:28.146Z,6.03
2023-01-27T18:12:55.177Z,6.15
2023-01-27T18:15:39.046Z,6.21
2023-01-27T18:18:30.581Z,6.18
2023-01-27T18:21:09.467Z,6.25
2023-01-27T18:23:51.071Z,5.85
2023-01-27T18:26:42.330Z,5.99
2023-01-27T18:29:17.358Z,6.09
2023-01-27T18:32:13.373Z,6.25
2023-01-27T18:35:00.399Z,6.36
2023-01-27T18:37:28.699Z,6.41
2023-01-27T18:40:00.886Z,6.40
2023-01-27T18:42:31.024Z,6.41
2023-01-27T18:44:58.326Z,6.59
2023-01-27T18:47:36.313Z,6.54
2023-01-27T18:50:24.195Z,6.53
2023-01-27T18:52:54.317Z,6.39
2023-01-27T18:55:29.864Z,6.44
2023-01-27T18:57:59.524Z,6.55
2023-01-27T19:00:53.637Z,6.39
2023-01-27T19:03:24.651Z,6.36
2023-01-27T19:05:52.083Z,6.47
2023-01-27T19:08:25.655Z,6.44
2023-01-27T19:10:53.097Z,6.34
2023-01-27T19:13:20.425Z,6.32
2023-01-27T19:15:51.724Z,6.52
2023-01-27T19:18:33.906Z,6.50
2023-01-27T19:21:03.915Z,6.37
2023-01-27T19:23:33.362Z,6.42
2023-01-27T19:26:03.569Z,6.45
2023-01-27T19:28:37.231Z,6.44
2023-01-27T19:31:07.666Z,6.47
2023-01-27T19:33:37.177Z,6.36
2023-01-27T19:36:44.601Z,6.35
2023-01-27T19:39:14.354Z,6.44
2023-01-27T19:41:45.617Z,6.50
2023-01-27T19:44:13.705Z,6.39
2023-01-27T19:46:42.669Z,6.47
2023-01-27T19:49:22.512Z,6.51
2023-01-27T19:51:51.633Z,6.52
2023-01-27T19:54:18.650Z,6.45
2023-01-27T19:56:46.014Z,6.33
2023-01-27T19:59:13.057Z,6.40
2023-01-27T20:01:45.994Z,6.24
2023-01-27T20:04:15.671Z,6.39
2023-01-27T20:06:45.049Z,6.35
2023-01-27T20:09:12.017Z,6.54
2023-01-27T20:11:42.411Z,6.54
2023-01-27T20:14:25.902Z,6.45
2023-01-27T20:16:55.223Z,6.38
2023-01-27T20:19:23.033Z,6.43
2023-01-27T20:21:55.528Z,6.50
2023-01-27T20:24:26.950Z,6.43
2023-01-27T20:26:55.478Z,6.28
2023-01-27T20:29:25.034Z,6.40
2023-01-27T20:31:54.667Z,6.37
2023-01-27T20:34:24.678Z,6.29
2023-01-27T20:36:51.618Z,6.08
2023-01-27T20:39:22.159Z,5.85
2023-01-27T20:41:51.210Z,5.95
2023-01-27T20:44:20.907Z,6.02
2023-01-27T20:46:47.968Z,6.02
2023-01-27T20:49:17.401Z,6.10
2023-01-27T20:51:44.496Z,6.11
2023-01-27T20:54:14.759Z,6.17
2023-01-27T20:56:41.727Z,6.28
2023-01-27T20:59:08.719Z,6.12
2023-01-27T21:01:35.887Z,5.96
2023-01-27T21:04:02.794Z,6.11
2023-01-27T21:06:29.713Z,5.95
2023-01-27T21:08:59.186Z,5.94
2023-01-27T21:11:26.170Z,5.99
2023-01-27T21:13:55.492Z,6.04
2023-01-27T21:16:22.561Z,6.14
2023-01-27T21:18:51.682Z,5.87
2023-01-27T21:21:27.488Z,6.01
2023-01-27T21:23:56.220Z,5.94
2023-01-27T21:26:24.009Z,5.85
2023-01-27T21:28:51.071Z,5.96
2023-01-27T21:31:20.583Z,6.18
2023-01-27T21:33:50.911Z,6.22
2023-01-27T21:36:19.316Z,5.84
2023-01-27T21:38:47.135Z,5.63
2023-01-27T21:41:37.850Z,5.87
2023-01-27T21:44:25.093Z,5.92
2023-01-27T21:46:52.104Z,5.89
2023-01-27T21:49:19.274Z,5.72
2023-01-27T21:51:48.102Z,5.61
2023-01-27T21:54:19.298Z,5.55
2023-01-27T21:56:46.220Z,5.47
2023-01-27T21:59:13.305Z,5.49
2023-01-27T22:01:42.840Z,5.58
2023-01-27T22:04:10.211Z,5.53
2023-01-27T22:06:37.938Z,5.61
2023-01-27T22:09:04.966Z,5.69
2023-01-27T22:11:32.211Z,5.68
2023-01-27T22:14:01.688Z,5.77
2023-01-27T22:16:28.912Z,5.90
2023-01-27T22:18:55.807Z,6.07
2023-01-27T22:21:24.914Z,6.25
2023-01-27T22:23:54.351Z,6.19
2023-01-27T22:26:21.291Z,6.12
2023-01-27T22:28:52.710Z,6.27
2023-01-27T22:31:22.665Z,6.28
2023-01-27T22:33:49.681Z,6.18
2023-01-27T22:36:16.725Z,6.31
2023-01-27T22:38:46.136Z,6.30
2023-01-27T22:41:13.221Z,6.31
2023-01-27T22:43:42.767Z,6.41
2023-01-27T22:46:14.231Z,6.24
2023-01-27T22:48:43.517Z,6.25
2023-01-27T22:51:10.541Z,6.24
2023-01-27T22:53:39.781Z,6.31
2023-01-27T22:56:09.745Z,6.37
2023-01-27T22:58:36.911Z,6.35
2023-01-27T23:01:08.194Z,6.28
2023-01-27T23:03:35.173Z,6.40
2023-01-27T23:06:07.261Z,6.37
2023-01-27T23:08:37.370Z,6.45
2023-01-27T23:11:06.316Z,6.50
2023-01-27T23:13:34.655Z,6.47
2023-01-27T23:16:01.701Z,6.37
2023-01-27T23:18:31.054Z,6.27
2023-01-27T23:21:04.885Z,6.16
2023-01-27T23:23:34.328Z,6.11
2023-01-27T23:26:01.474Z,6.24
2023-01-27T23:28:30.691Z,6.22
2023-01-27T23:30:57.825Z,6.30
2023-01-27T23:33:30.122Z,6.22
2023-01-27T23:36:00.148Z,6.39
2023-01-27T23:38:33.187Z,6.48
2023-01-27T23:41:24.270Z,6.45
2023-01-27T23:43:53.036Z,6.41
2023-01-27T23:46:20.310Z,6.37
2023-01-27T23:48:55.298Z,6.33
2023-01-27T23:51:23.594Z,6.26
2023-01-27T23:53:51.268Z,6.04
2023-01-27T23:56:20.352Z,6.04
2023-01-27T23:58:47.775Z,6.17
